sensor_id;sensor_type;location;lat;lon;timestamp;P1;durP1;ratioP1;P2;durP2;ratioP2
85210;SDS011;75591;44.496;0.166;2024-01-16T00:07:42;90.13;;;18.93;;
85210;SDS011;75591;44.496;0.166;2024-01-16T00:23:01;112.20;;;20.97;;
85210;SDS011;75591;44.496;0.166;2024-01-16T00:38:23;266.10;;;27.10;;
85210;SDS011;75591;44.496;0.166;2024-01-16T00:53:41;374.77;;;29.70;;
85210;SDS011;75591;44.496;0.166;2024-01-16T01:09:00;119.97;;;20.13;;
85210;SDS011;75591;44.496;0.166;2024-01-16T01:24:19;150.47;;;23.57;;
85210;SDS011;75591;44.496;0.166;2024-01-16T01:39:39;145.43;;;23.20;;
85210;SDS011;75591;44.496;0.166;2024-01-16T01:54:57;121.90;;;22.20;;
85210;SDS011;75591;44.496;0.166;2024-01-16T02:10:16;274.67;;;29.13;;
85210;SDS011;75591;44.496;0.166;2024-01-16T02:25:35;370.03;;;26.60;;
85210;SDS011;75591;44.496;0.166;2024-01-16T02:40:54;343.87;;;28.00;;
85210;SDS011;75591;44.496;0.166;2024-01-16T02:56:12;369.10;;;30.83;;
85210;SDS011;75591;44.496;0.166;2024-01-16T03:11:33;323.33;;;29.13;;
85210;SDS011;75591;44.496;0.166;2024-01-16T03:26:53;226.83;;;24.07;;
85210;SDS011;75591;44.496;0.166;2024-01-16T03:42:13;254.67;;;27.40;;
85210;SDS011;75591;44.496;0.166;2024-01-16T03:57:30;364.63;;;32.77;;
85210;SDS011;75591;44.496;0.166;2024-01-16T04:12:49;213.40;;;26.30;;
85210;SDS011;75591;44.496;0.166;2024-01-16T04:28:07;213.13;;;26.03;;
85210;SDS011;75591;44.496;0.166;2024-01-16T04:43:27;160.43;;;21.37;;
85210;SDS011;75591;44.496;0.166;2024-01-16T04:58:45;276.43;;;26.77;;
85210;SDS011;75591;44.496;0.166;2024-01-16T05:14:02;362.97;;;28.57;;
85210;SDS011;75591;44.496;0.166;2024-01-16T05:29:22;167.57;;;21.17;;
85210;SDS011;75591;44.496;0.166;2024-01-16T05:44:41;94.17;;;16.30;;
85210;SDS011;75591;44.496;0.166;2024-01-16T06:00:00;111.63;;;18.47;;
85210;SDS011;75591;44.496;0.166;2024-01-16T06:15:18;118.47;;;18.50;;
85210;SDS011;75591;44.496;0.166;2024-01-16T06:30:38;80.57;;;15.83;;
85210;SDS011;75591;44.496;0.166;2024-01-16T06:45:57;77.47;;;19.80;;
85210;SDS011;75591;44.496;0.166;2024-01-16T07:01:16;91.37;;;18.03;;
85210;SDS011;75591;44.496;0.166;2024-01-16T07:16:37;76.50;;;17.57;;
85210;SDS011;75591;44.496;0.166;2024-01-16T07:31:55;86.47;;;17.43;;
85210;SDS011;75591;44.496;0.166;2024-01-16T07:47:14;43.67;;;14.67;;
85210;SDS011;75591;44.496;0.166;2024-01-16T08:02:34;68.60;;;18.07;;
85210;SDS011;75591;44.496;0.166;2024-01-16T08:17:54;59.43;;;16.37;;
85210;SDS011;75591;44.496;0.166;2024-01-16T08:33:14;43.17;;;16.43;;
85210;SDS011;75591;44.496;0.166;2024-01-16T08:48:33;44.53;;;15.20;;
85210;SDS011;75591;44.496;0.166;2024-01-16T09:03:53;64.23;;;25.73;;
85210;SDS011;75591;44.496;0.166;2024-01-16T09:19:12;62.67;;;25.73;;
85210;SDS011;75591;44.496;0.166;2024-01-16T09:34:32;41.33;;;19.40;;
85210;SDS011;75591;44.496;0.166;2024-01-16T09:49:51;28.13;;;16.00;;
85210;SDS011;75591;44.496;0.166;2024-01-16T10:05:11;13.73;;;7.53;;
85210;SDS011;75591;44.496;0.166;2024-01-16T10:20:34;3.47;;;2.70;;
85210;SDS011;75591;44.496;0.166;2024-01-16T10:35:57;1.07;;;0.47;;
85210;SDS011;75591;44.496;0.166;2024-01-16T10:51:14;0.80;;;0.50;;
85210;SDS011;75591;44.496;0.166;2024-01-16T11:06:31;-1.00;;;-1.00;;
85210;SDS011;75591;44.496;0.166;2024-01-16T11:21:49;3.90;;;0.60;;
85210;SDS011;75591;44.496;0.166;2024-01-16T11:37:07;3.03;;;0.70;;
85210;SDS011;75591;44.496;0.166;2024-01-16T12:07:49;0.67;;;0.50;;
85210;SDS011;75591;44.496;0.166;2024-01-16T12:23:08;6.13;;;0.73;;
85210;SDS011;75591;44.496;0.166;2024-01-16T12:38:28;0.67;;;0.50;;
85210;SDS011;75591;44.496;0.166;2024-01-16T12:53:49;4.60;;;0.70;;
85210;SDS011;75591;44.496;0.166;2024-01-16T13:09:10;0.63;;;0.40;;
85210;SDS011;75591;44.496;0.166;2024-01-16T13:24:25;1.10;;;0.50;;
85210;SDS011;75591;44.496;0.166;2024-01-16T13:39:43;2.77;;;0.50;;
85210;SDS011;75591;44.496;0.166;2024-01-16T13:55:05;1.57;;;0.50;;
85210;SDS011;75591;44.496;0.166;2024-01-16T14:10:22;2.77;;;0.70;;
85210;SDS011;75591;44.496;0.166;2024-01-16T14:25:39;1.70;;;1.13;;
85210;SDS011;75591;44.496;0.166;2024-01-16T14:40:59;2.70;;;0.90;;
85210;SDS011;75591;44.496;0.166;2024-01-16T14:56:18;5.80;;;1.10;;
85210;SDS011;75591;44.496;0.166;2024-01-16T15:11:37;7.17;;;1.20;;
85210;SDS011;75591;44.496;0.166;2024-01-16T15:26:54;2.50;;;0.97;;
85210;SDS011;75591;44.496;0.166;2024-01-16T15:42:12;2.40;;;1.23;;
85210;SDS011;75591;44.496;0.166;2024-01-16T15:57:30;6.93;;;2.40;;
85210;SDS011;75591;44.496;0.166;2024-01-16T16:12:48;12.67;;;1.97;;
85210;SDS011;75591;44.496;0.166;2024-01-16T16:28:08;5.10;;;1.93;;
85210;SDS011;75591;44.496;0.166;2024-01-16T16:43:27;6.93;;;1.80;;
85210;SDS011;75591;44.496;0.166;2024-01-16T16:58:47;6.57;;;2.53;;
85210;SDS011;75591;44.496;0.166;2024-01-16T17:14:05;5.90;;;1.93;;
85210;SDS011;75591;44.496;0.166;2024-01-16T17:29:26;8.90;;;3.07;;
85210;SDS011;75591;44.496;0.166;2024-01-16T17:44:46;13.50;;;4.00;;
85210;SDS011;75591;44.496;0.166;2024-01-16T18:00:06;13.80;;;5.23;;
85210;SDS011;75591;44.496;0.166;2024-01-16T18:15:22;11.60;;;5.43;;
85210;SDS011;75591;44.496;0.166;2024-01-16T18:30:42;10.07;;;5.00;;
85210;SDS011;75591;44.496;0.166;2024-01-16T18:46:01;14.17;;;3.63;;
85210;SDS011;75591;44.496;0.166;2024-01-16T19:01:22;7.40;;;3.57;;
85210;SDS011;75591;44.496;0.166;2024-01-16T19:16:39;13.17;;;4.50;;
85210;SDS011;75591;44.496;0.166;2024-01-16T19:31:58;8.13;;;3.83;;
85210;SDS011;75591;44.496;0.166;2024-01-16T19:47:16;9.00;;;3.60;;
85210;SDS011;75591;44.496;0.166;2024-01-16T20:02:37;8.37;;;3.60;;
85210;SDS011;75591;44.496;0.166;2024-01-16T20:17:59;7.70;;;2.63;;
85210;SDS011;75591;44.496;0.166;2024-01-16T20:33:18;7.17;;;2.07;;
85210;SDS011;75591;44.496;0.166;2024-01-16T20:48:37;5.23;;;1.97;;
85210;SDS011;75591;44.496;0.166;2024-01-16T21:03:56;8.10;;;2.50;;
85210;SDS011;75591;44.496;0.166;2024-01-16T21:19:18;6.63;;;2.40;;
85210;SDS011;75591;44.496;0.166;2024-01-16T21:34:35;3.63;;;2.30;;
85210;SDS011;75591;44.496;0.166;2024-01-16T21:49:56;8.90;;;3.23;;
85210;SDS011;75591;44.496;0.166;2024-01-16T22:05:16;11.67;;;2.20;;
85210;SDS011;75591;44.496;0.166;2024-01-16T22:20:35;3.27;;;1.80;;
85210;SDS011;75591;44.496;0.166;2024-01-16T22:35:54;3.30;;;1.97;;
85210;SDS011;75591;44.496;0.166;2024-01-16T22:51:16;6.27;;;2.30;;
85210;SDS011;75591;44.496;0.166;2024-01-16T23:06:33;7.10;;;2.77;;
85210;SDS011;75591;44.496;0.166;2024-01-16T23:21:52;5.63;;;2.17;;
85210;SDS011;75591;44.496;0.166;2024-01-16T23:37:11;5.00;;;2.53;;
85210;SDS011;75591;44.496;0.166;2024-01-16T23:52:30;7.90;;;2.23;;
